createdAt,value
2018-04-12T00:00:44.415Z,103.53
2018-04-12T00:03:13.325Z,98.82
2018-04-12T00:05:42.224Z,90.90
2018-04-12T00:08:11.101Z,93.97
2018-04-12T00:10:39.986Z,106.00
2018-04-12T00:13:08.907Z,94.20
2018-04-12T00:15:37.040Z,90.50
2018-04-12T00:18:05.925Z,94.82
2018-04-12T00:20:34.062Z,94.37
2018-04-12T00:23:02.183Z,115.35
2018-04-12T00:25:31.084Z,114.97
2018-04-12T00:27:59.973Z,118.07
2018-04-12T00:30:28.902Z,112.50
2018-04-12T00:32:57.060Z,108.07
2018-04-12T00:35:25.226Z,127.28
2018-04-12T00:37:54.112Z,120.03
2018-04-12T00:40:22.998Z,126.38
2018-04-12T00:42:51.896Z,112.85
2018-04-12T00:45:20.080Z,124.78
2018-04-12T00:47:48.198Z,131.27
2018-04-12T00:50:16.426Z,118.57
2018-04-12T00:52:44.559Z,135.23
2018-04-12T00:55:13.457Z,152.57
2018-04-12T00:57:42.376Z,129.32
2018-04-12T01:00:10.490Z,115.03
2018-04-12T01:02:38.721Z,114.88
2018-04-12T01:05:06.871Z,123.35
2018-04-12T01:07:35.773Z,141.35
2018-04-12T01:10:04.661Z,124.70
2018-04-12T01:12:33.553Z,145.43
2018-04-12T01:15:02.452Z,152.95
2018-04-12T01:17:31.450Z,144.20
2018-04-12T01:19:59.577Z,152.18
2018-04-12T01:22:27.708Z,205.60
2018-04-12T01:24:55.883Z,142.40
2018-04-12T01:27:24.017Z,171.73
2018-04-12T01:29:52.915Z,156.02
2018-04-12T01:32:21.802Z,215.32
2018-04-12T01:34:50.694Z,286.15
2018-04-12T01:37:19.605Z,185.12
2018-04-12T01:39:47.776Z,255.85
2018-04-12T01:42:15.906Z,188.65
2018-04-12T01:44:44.033Z,253.00
2018-04-12T01:47:12.186Z,268.83
2018-04-12T01:49:41.086Z,184.68
2018-04-12T01:52:09.266Z,176.98
2018-04-12T01:54:37.790Z,158.85
2018-04-12T01:57:05.918Z,139.60
2018-04-12T01:59:34.026Z,110.78
2018-04-12T02:02:02.148Z,109.37
2018-04-12T02:04:31.157Z,108.05
2018-04-12T02:06:59.301Z,119.15
2018-04-12T02:09:28.198Z,125.25
2018-04-12T02:11:57.086Z,129.25
2018-04-12T02:14:26.013Z,142.82
2018-04-12T02:16:54.141Z,125.22
2018-04-12T02:19:23.039Z,111.68
2018-04-12T02:21:51.933Z,111.55
2018-04-12T02:24:20.835Z,127.10
2018-04-12T02:26:49.742Z,108.80
2018-04-12T02:29:17.910Z,101.05
2018-04-12T02:31:46.027Z,124.93
2018-04-12T02:34:14.167Z,95.72
2018-04-12T02:36:42.306Z,114.28
2018-04-12T02:39:11.199Z,109.28
2018-04-12T02:41:40.944Z,100.28
2018-04-12T02:44:09.085Z,98.80
2018-04-12T02:46:38.091Z,96.87
2018-04-12T02:49:06.213Z,119.95
2018-04-12T02:51:34.337Z,106.37
2018-04-12T02:54:02.468Z,92.57
2018-04-12T02:56:30.609Z,128.35
2018-04-12T02:58:58.745Z,96.85
2018-04-12T03:01:28.081Z,186.27
2018-04-12T03:03:56.201Z,100.85
2018-04-12T03:06:25.105Z,306.40
2018-04-12T03:08:54.011Z,177.70
2018-04-12T03:11:22.187Z,110.40
2018-04-12T03:13:50.300Z,195.75
2018-04-12T03:16:18.436Z,112.78
2018-04-12T03:18:46.578Z,123.53
2018-04-12T03:21:15.469Z,92.20
2018-04-12T03:23:44.376Z,223.05
2018-04-12T03:26:12.563Z,193.30
2018-04-12T03:28:40.732Z,186.18
2018-04-12T03:31:08.864Z,115.00
2018-04-12T03:33:37.008Z,81.75
2018-04-12T03:36:05.117Z,101.40
2018-04-12T03:38:33.270Z,124.97
2018-04-12T03:41:01.386Z,123.47
2018-04-12T03:43:29.510Z,140.88
2018-04-12T03:45:57.648Z,279.50
2018-04-12T03:48:25.787Z,162.57
2018-04-12T03:50:54.694Z,162.80
2018-04-12T03:53:23.578Z,193.85
2018-04-12T03:55:52.578Z,230.70
2018-04-12T03:58:20.762Z,158.30
2018-04-12T04:00:48.878Z,85.82
2018-04-12T04:03:17.101Z,135.30
2018-04-12T04:05:45.235Z,126.62
2018-04-12T04:08:13.406Z,257.70
2018-04-12T04:10:41.526Z,104.28
2018-04-12T04:13:09.649Z,98.95
2018-04-12T04:15:49.713Z,76.80
2018-04-12T04:18:29.657Z,87.43
2018-04-12T04:21:03.735Z,123.00
2018-04-12T04:23:32.583Z,129.77
2018-04-12T04:26:01.465Z,155.02
2018-04-12T04:28:29.613Z,113.72
2018-04-12T04:30:57.738Z,85.28
2018-04-12T04:33:25.934Z,114.30
2018-04-12T04:35:54.082Z,159.00
2018-04-12T04:38:22.270Z,131.60
2018-04-12T04:40:50.398Z,166.07
2018-04-12T04:43:18.514Z,95.43
2018-04-12T04:45:46.680Z,303.23
2018-04-12T04:48:15.577Z,195.95
2018-04-12T04:50:44.449Z,136.35
2018-04-12T04:53:12.585Z,129.23
2018-04-12T04:55:40.731Z,132.50
2018-04-12T04:58:08.869Z,176.73
2018-04-12T05:00:36.999Z,133.75
2018-04-12T05:03:05.111Z,239.38
2018-04-12T05:05:34.016Z,239.68
2018-04-12T05:08:02.154Z,199.27
2018-04-12T05:10:30.289Z,156.05
2018-04-12T05:12:58.417Z,156.43
2018-04-12T05:15:26.590Z,117.03
2018-04-12T05:17:54.676Z,234.25
2018-04-12T05:20:22.832Z,167.95
2018-04-12T05:22:51.721Z,174.12
2018-04-12T05:25:20.615Z,252.18
2018-04-12T05:27:49.572Z,173.07
2018-04-12T05:30:17.669Z,198.05
2018-04-12T05:32:46.553Z,180.27
2018-04-12T05:35:15.455Z,239.65
2018-04-12T05:37:44.375Z,360.98
2018-04-12T05:40:12.509Z,167.90
2018-04-12T05:42:41.402Z,151.93
2018-04-12T05:45:10.321Z,239.70
2018-04-12T05:47:41.598Z,191.30
2018-04-12T05:50:09.731Z,132.20
2018-04-12T05:52:38.619Z,219.48
2018-04-12T05:55:06.802Z,141.95
2018-04-12T05:57:34.988Z,189.18
2018-04-12T06:00:03.172Z,199.85
2018-04-12T06:02:31.288Z,191.30
2018-04-12T06:04:59.410Z,160.43
2018-04-12T06:07:27.575Z,243.63
2018-04-12T06:09:55.740Z,199.20
2018-04-12T06:12:23.862Z,222.40
2018-04-12T06:14:52.012Z,203.55
2018-04-12T06:17:20.118Z,208.50
2018-04-12T06:19:48.267Z,189.20
2018-04-12T06:22:16.394Z,244.23
2018-04-12T06:24:44.588Z,273.75
2018-04-12T06:27:12.731Z,186.43
2018-04-12T06:29:41.750Z,161.02
2018-04-12T06:32:09.866Z,183.57
2018-04-12T06:34:38.012Z,190.43
2018-04-12T06:37:06.134Z,167.40
2018-04-12T06:39:35.051Z,190.32
2018-04-12T06:42:03.178Z,184.10
2018-04-12T06:44:31.322Z,196.90
2018-04-12T06:46:59.469Z,165.32
2018-04-12T06:49:27.597Z,158.30
2018-04-12T06:51:55.723Z,289.80
2018-04-12T06:54:23.893Z,173.48
2018-04-12T06:56:52.019Z,181.45
2018-04-12T06:59:20.235Z,181.77
2018-04-12T07:01:48.432Z,201.55
2018-04-12T07:04:16.554Z,182.55
2018-04-12T07:06:45.445Z,211.95
2018-04-12T07:09:14.344Z,193.90
2018-04-12T07:11:43.256Z,215.15
2018-04-12T07:14:11.391Z,199.23
2018-04-12T07:16:40.336Z,205.50
2018-04-12T07:19:08.468Z,223.77
2018-04-12T07:21:37.373Z,201.40
2018-04-12T07:24:05.519Z,205.12
2018-04-12T07:26:33.640Z,190.80
2018-04-12T07:29:01.799Z,205.75
2018-04-12T07:31:29.949Z,212.63
2018-04-12T07:33:58.849Z,220.00
2018-04-12T07:36:26.989Z,212.80
2018-04-12T07:38:55.135Z,203.77
2018-04-12T07:41:23.279Z,208.10
2018-04-12T07:43:51.497Z,182.77
2018-04-12T07:46:19.583Z,192.80
2018-04-12T07:48:47.754Z,192.65
2018-04-12T07:51:15.938Z,193.87
2018-04-12T07:53:44.054Z,188.10
2018-04-12T07:56:12.212Z,198.77
2018-04-12T07:58:40.391Z,181.15
2018-04-12T08:01:08.571Z,185.90
2018-04-12T08:03:36.737Z,187.27
2018-04-12T08:06:04.869Z,184.02
2018-04-12T08:08:33.007Z,196.52
2018-04-12T08:11:01.169Z,185.20
2018-04-12T08:13:29.347Z,163.68
2018-04-12T08:15:57.535Z,150.35
2018-04-12T08:18:25.671Z,147.93
2018-04-12T08:20:53.844Z,156.12
2018-04-12T08:23:21.966Z,152.60
2018-04-12T08:25:50.102Z,154.73
2018-04-12T08:28:18.285Z,152.20
2018-04-12T08:30:46.426Z,144.07
2018-04-12T08:33:15.322Z,136.47
2018-04-12T08:35:44.226Z,140.23
2018-04-12T08:38:12.356Z,136.55
2018-04-12T08:40:40.495Z,135.40
2018-04-12T08:43:08.625Z,135.23
2018-04-12T08:45:37.538Z,133.07
2018-04-12T08:48:05.682Z,142.40
2018-04-12T08:50:34.590Z,136.85
2018-04-12T08:53:03.362Z,141.67
2018-04-12T08:55:32.388Z,135.47
2018-04-12T08:58:00.571Z,149.95
2018-04-12T09:00:28.710Z,138.25
2018-04-12T09:02:57.655Z,134.27
2018-04-12T09:05:25.791Z,135.35
2018-04-12T09:07:53.914Z,147.32
2018-04-12T09:10:22.139Z,135.52
2018-04-12T09:12:50.278Z,136.93
2018-04-12T09:15:18.502Z,138.85
2018-04-12T09:17:46.658Z,143.50
2018-04-12T09:20:14.800Z,129.57
2018-04-12T09:22:43.724Z,134.85
2018-04-12T09:25:11.887Z,129.40
2018-04-12T09:27:40.882Z,123.63
2018-04-12T09:30:08.946Z,119.43
2018-04-12T09:32:37.875Z,113.13
2018-04-12T09:35:06.011Z,104.87
2018-04-12T09:37:34.917Z,105.23
2018-04-12T09:40:03.066Z,102.90
2018-04-12T09:42:31.995Z,110.77
2018-04-12T09:45:00.119Z,107.37
2018-04-12T09:47:28.284Z,104.37
2018-04-12T09:49:57.938Z,109.63
2018-04-12T09:52:26.097Z,107.30
2018-04-12T09:54:54.986Z,106.17
2018-04-12T09:57:30.490Z,107.13
2018-04-12T09:59:58.677Z,106.85
2018-04-12T10:02:28.576Z,116.45
2018-04-12T10:05:00.665Z,120.40
2018-04-12T10:07:44.850Z,116.60
2018-04-12T10:10:13.714Z,115.90
2018-04-12T10:12:42.618Z,115.57
2018-04-12T10:15:11.546Z,110.50
2018-04-12T10:17:39.671Z,108.93
2018-04-12T10:20:08.694Z,112.97
2018-04-12T10:22:36.966Z,114.33
2018-04-12T10:25:05.095Z,106.68
2018-04-12T10:27:33.986Z,106.55
2018-04-12T10:30:03.106Z,103.40
2018-04-12T10:32:32.018Z,103.23
2018-04-12T10:35:00.286Z,102.68
2018-04-12T10:37:28.466Z,106.17
2018-04-12T10:39:57.347Z,104.60
2018-04-12T10:42:26.458Z,100.10
2018-04-12T10:44:55.538Z,98.70
2018-04-12T10:47:23.710Z,95.20
2018-04-12T10:49:52.609Z,106.73
2018-04-12T10:52:20.765Z,93.07
2018-04-12T10:54:49.663Z,90.90
2018-04-12T10:57:18.553Z,99.97
2018-04-12T10:59:47.451Z,97.03
2018-04-12T11:02:15.601Z,98.50
2018-04-12T11:04:44.502Z,98.30
2018-04-12T11:07:13.405Z,94.50
2018-04-12T11:09:41.569Z,94.27
2018-04-12T11:12:10.597Z,92.33
2018-04-12T11:14:39.177Z,87.83
2018-04-12T11:17:07.292Z,104.03
2018-04-12T11:19:35.453Z,97.60
2018-04-12T11:22:03.595Z,94.30
2018-04-12T11:24:31.727Z,89.30
2018-04-12T11:27:00.626Z,99.97
2018-04-12T11:29:29.520Z,93.73
2018-04-12T11:31:57.656Z,92.43
2018-04-12T11:34:25.926Z,92.57
2018-04-12T11:36:54.001Z,93.50
2018-04-12T11:39:22.113Z,106.50
2018-04-12T11:41:50.279Z,102.53
2018-04-12T11:44:22.843Z,92.57
2018-04-12T11:46:52.504Z,93.07
2018-04-12T11:49:20.631Z,91.37
2018-04-12T11:51:48.822Z,87.37
2018-04-12T11:54:16.941Z,90.17
2018-04-12T11:56:45.069Z,91.90
2018-04-12T11:59:14.073Z,103.20
2018-04-12T12:01:42.282Z,102.33
2018-04-12T12:04:10.418Z,103.17
2018-04-12T12:06:38.536Z,106.37
2018-04-12T12:09:08.189Z,105.33
2018-04-12T12:11:36.366Z,104.57
2018-04-12T12:14:04.503Z,107.03
2018-04-12T12:16:32.637Z,107.63
2018-04-12T12:19:00.753Z,104.80
2018-04-12T12:21:28.881Z,98.93
2018-04-12T12:23:57.034Z,100.47
2018-04-12T12:26:25.165Z,107.63
2018-04-12T12:28:54.822Z,104.50
2018-04-12T12:31:22.982Z,95.40
2018-04-12T12:33:51.891Z,109.23
2018-04-12T12:36:20.009Z,101.50
2018-04-12T12:38:48.130Z,101.60
2018-04-12T12:41:16.258Z,98.30
2018-04-12T12:43:44.432Z,110.17
2018-04-12T12:46:12.550Z,99.10
2018-04-12T12:48:40.666Z,105.97
2018-04-12T12:51:10.421Z,109.50
2018-04-12T12:53:38.575Z,110.37
2018-04-12T12:56:07.485Z,116.13
2018-04-12T12:58:35.662Z,114.20
2018-04-12T13:01:03.832Z,121.63
2018-04-12T13:03:32.003Z,110.07
2018-04-12T13:06:00.889Z,113.77
2018-04-12T13:08:29.816Z,107.53
2018-04-12T13:10:57.929Z,112.33
2018-04-12T13:13:26.138Z,109.20
2018-04-12T13:15:54.327Z,111.20
2018-04-12T13:18:22.499Z,110.27
2018-04-12T13:20:50.638Z,104.60
2018-04-12T13:23:19.562Z,108.33
2018-04-12T13:25:47.682Z,108.20
2018-04-12T13:28:15.820Z,106.10
2018-04-12T13:30:43.976Z,100.40
2018-04-12T13:33:12.185Z,101.10
2018-04-12T13:35:40.294Z,105.57
2018-04-12T13:38:08.490Z,100.73
2018-04-12T13:40:36.607Z,107.97
2018-04-12T13:43:04.825Z,99.30
2018-04-12T13:48:12.781Z,93.80
2018-04-12T13:50:40.918Z,99.03
2018-04-12T13:53:09.782Z,101.37
2018-04-12T13:55:37.930Z,104.47
2018-04-12T13:58:06.062Z,95.57
2018-04-12T14:00:34.957Z,97.23
2018-04-12T14:03:03.121Z,103.20
2018-04-12T14:05:32.129Z,98.73
2018-04-12T14:08:01.001Z,98.90
2018-04-12T14:10:29.890Z,101.63
2018-04-12T14:12:58.822Z,101.30
2018-04-12T14:15:26.946Z,102.57
2018-04-12T14:17:55.830Z,100.57
2018-04-12T14:20:24.008Z,97.97
2018-04-12T14:22:52.138Z,90.17
2018-04-12T14:25:20.365Z,98.90
2018-04-12T14:27:49.247Z,100.60
2018-04-12T14:30:18.185Z,94.63
2018-04-12T14:32:46.359Z,90.97
2018-04-12T14:35:14.487Z,92.57
2018-04-12T14:37:43.389Z,95.37
2018-04-12T14:40:11.569Z,96.83
2018-04-12T14:42:40.521Z,97.60
2018-04-12T14:45:08.685Z,96.17
2018-04-12T14:47:36.820Z,92.80
2018-04-12T14:50:04.937Z,94.87
2018-04-12T14:52:33.174Z,90.03
2018-04-12T14:55:01.298Z,93.07
2018-04-12T14:57:29.513Z,96.60
2018-04-12T14:59:57.629Z,94.47
2018-04-12T15:02:25.871Z,92.03
2018-04-12T15:04:54.025Z,86.03
2018-04-12T15:07:22.145Z,91.07
2018-04-12T15:09:50.260Z,91.57
2018-04-12T15:12:19.155Z,84.77
2018-04-12T15:14:48.082Z,90.83
2018-04-12T15:17:16.207Z,91.13
2018-04-12T15:19:44.329Z,89.83
2018-04-12T15:22:12.485Z,89.70
2018-04-12T15:24:40.643Z,92.17
2018-04-12T15:27:08.771Z,91.63
2018-04-12T15:29:36.893Z,95.60
2018-04-12T15:32:05.049Z,91.63
2018-04-12T15:34:33.160Z,90.47
2018-04-12T15:37:01.350Z,88.57
2018-04-12T15:39:29.466Z,92.97
2018-04-12T15:41:58.346Z,92.37
2018-04-12T15:44:26.570Z,90.87
2018-04-12T15:46:55.543Z,89.50
2018-04-12T15:49:24.427Z,93.07
2018-04-12T15:51:53.303Z,88.50
2018-04-12T15:54:22.201Z,84.87
2018-04-12T15:56:51.196Z,90.00
2018-04-12T15:59:20.111Z,85.80
2018-04-12T16:01:48.983Z,93.23
2018-04-12T16:04:17.142Z,88.90
2018-04-12T16:06:46.050Z,90.37
2018-04-12T16:09:14.225Z,91.27
2018-04-12T16:11:43.114Z,89.20
2018-04-12T16:14:11.290Z,93.33
2018-04-12T16:16:40.199Z,88.17
2018-04-12T16:19:08.334Z,89.43
2018-04-12T16:21:37.222Z,86.87
2018-04-12T16:24:06.102Z,88.97
2018-04-12T16:26:34.230Z,92.53
2018-04-12T16:29:02.338Z,89.10
2018-04-12T16:31:30.483Z,94.17
2018-04-12T16:33:58.722Z,90.17
2018-04-12T16:36:26.854Z,93.27
2018-04-12T16:38:55.034Z,90.80
2018-04-12T16:41:23.110Z,94.50
2018-04-12T16:43:52.822Z,90.83
2018-04-12T16:46:20.946Z,96.97
2018-04-12T16:48:49.068Z,95.27
2018-04-12T16:51:17.244Z,95.50
2018-04-12T16:53:45.450Z,94.07
2018-04-12T16:56:13.647Z,94.73
2018-04-12T16:58:41.765Z,92.10
2018-04-12T17:01:10.025Z,90.27
2018-04-12T17:03:38.134Z,94.53
2018-04-12T17:06:07.070Z,95.30
2018-04-12T17:08:35.258Z,95.07
2018-04-12T17:11:03.375Z,88.33
2018-04-12T17:13:32.285Z,91.47
2018-04-12T17:16:00.446Z,96.77
2018-04-12T17:18:28.576Z,97.33
2018-04-12T17:20:56.725Z,92.40
2018-04-12T17:23:24.875Z,94.40
2018-04-12T17:25:53.005Z,94.53
2018-04-12T17:28:21.153Z,94.77
2018-04-12T17:30:49.277Z,100.63
2018-04-12T17:33:18.173Z,94.93
2018-04-12T17:35:47.094Z,94.20
2018-04-12T17:38:15.291Z,93.67
2018-04-12T17:40:43.421Z,92.80
2018-04-12T17:43:11.601Z,97.63
2018-04-12T17:45:39.729Z,102.47
2018-04-12T17:48:07.928Z,102.40
2018-04-12T17:50:36.821Z,102.27
2018-04-12T17:53:05.765Z,97.50
2018-04-12T17:55:33.897Z,98.20
2018-04-12T17:58:02.195Z,103.43
2018-04-12T18:00:30.309Z,103.37
2018-04-12T18:02:58.421Z,102.07
2018-04-12T18:05:26.562Z,100.40
2018-04-12T18:07:54.875Z,99.23
2018-04-12T18:10:22.991Z,99.57
2018-04-12T18:12:51.109Z,104.87
2018-04-12T18:15:19.412Z,97.37
2018-04-12T18:17:47.656Z,109.43
2018-04-12T18:20:15.837Z,101.80
2018-04-12T18:22:43.951Z,99.03
2018-04-12T18:25:12.090Z,99.97
2018-04-12T18:27:40.275Z,103.60
2018-04-12T18:30:08.389Z,99.97
2018-04-12T18:32:36.550Z,101.00
2018-04-12T18:35:04.666Z,101.90
2018-04-12T18:37:33.567Z,106.00
2018-04-12T18:40:01.693Z,101.57
2018-04-12T18:42:31.341Z,102.17
2018-04-12T18:45:00.233Z,100.70
2018-04-12T18:47:28.374Z,107.30
2018-04-12T18:49:56.513Z,101.80
2018-04-12T18:52:24.629Z,106.43
2018-04-12T18:54:52.829Z,99.83
2018-04-12T18:57:21.006Z,100.17
2018-04-12T18:59:49.127Z,102.73
2018-04-12T19:02:17.292Z,103.07
2018-04-12T19:04:45.463Z,103.30
2018-04-12T19:07:13.634Z,106.97
2018-04-12T19:09:41.776Z,97.70
2018-04-12T19:12:09.908Z,100.97
2018-04-12T19:14:38.050Z,104.20
2018-04-12T19:17:06.201Z,111.67
2018-04-12T19:19:34.322Z,111.53
2018-04-12T19:22:02.494Z,111.17
2018-04-12T19:24:30.612Z,107.30
2018-04-12T19:26:58.754Z,103.67
2018-04-12T19:29:27.685Z,105.57
2018-04-12T19:31:55.826Z,105.43
2018-04-12T19:34:24.706Z,107.70
2018-04-12T19:36:52.874Z,108.53
2018-04-12T19:39:21.012Z,111.23
2018-04-12T19:41:49.233Z,109.93
2018-04-12T19:44:17.320Z,107.47
2018-04-12T19:46:46.210Z,106.70
2018-04-12T19:49:15.180Z,111.20
2018-04-12T19:51:43.317Z,109.93
2018-04-12T19:54:11.442Z,118.00
2018-04-12T19:56:40.375Z,113.73
2018-04-12T19:59:08.486Z,110.77
2018-04-12T20:01:36.670Z,120.80
2018-04-12T20:04:04.770Z,120.30
2018-04-12T20:06:32.890Z,119.50
2018-04-12T20:09:01.074Z,118.70
2018-04-12T20:11:29.188Z,119.37
2018-04-12T20:13:57.370Z,121.57
2018-04-12T20:16:25.457Z,116.43
2018-04-12T20:18:53.577Z,107.57
2018-04-12T20:21:22.469Z,114.70
2018-04-12T20:23:51.353Z,112.67
2018-04-12T20:26:19.559Z,124.57
2018-04-12T20:28:47.769Z,122.17
2018-04-12T20:31:15.938Z,118.70
2018-04-12T20:33:44.091Z,122.80
2018-04-12T20:36:12.225Z,127.20
2018-04-12T20:38:40.421Z,117.77
2018-04-12T20:41:08.592Z,114.97
2018-04-12T20:43:36.775Z,124.50
2018-04-12T20:46:04.919Z,126.27
2018-04-12T20:48:33.038Z,124.37
2018-04-12T20:51:01.195Z,119.73
2018-04-12T20:53:29.340Z,120.32
2018-04-12T20:55:57.529Z,119.43
2018-04-12T20:58:25.678Z,126.10
2018-04-12T21:00:54.611Z,125.07
2018-04-12T21:03:22.746Z,118.95
2018-04-12T21:05:50.882Z,119.83
2018-04-12T21:08:19.086Z,118.83
2018-04-12T21:10:47.180Z,125.17
2018-04-12T21:13:16.094Z,123.57
2018-04-12T21:15:44.214Z,115.00
2018-04-12T21:18:12.440Z,126.87
2018-04-12T21:20:40.582Z,121.28
2018-04-12T21:23:09.489Z,130.00
2018-04-12T21:25:37.621Z,124.70
2018-04-12T21:28:05.758Z,132.68
2018-04-12T21:30:33.939Z,136.57
2018-04-12T21:33:02.068Z,131.80
2018-04-12T21:35:31.012Z,145.38
2018-04-12T21:37:59.174Z,135.18
2018-04-12T21:40:27.323Z,124.22
2018-04-12T21:42:55.471Z,114.57
2018-04-12T21:45:25.115Z,137.80
2018-04-12T21:47:53.280Z,128.23
2018-04-12T21:50:21.457Z,124.75
2018-04-12T21:52:49.662Z,129.90
2018-04-12T21:55:17.773Z,138.45
2018-04-12T21:57:46.673Z,133.35
2018-04-12T22:00:15.601Z,131.00
2018-04-12T22:02:43.719Z,134.85
2018-04-12T22:05:12.615Z,142.23
2018-04-12T22:07:41.551Z,135.40
2018-04-12T22:10:09.674Z,126.53
2018-04-12T22:12:38.560Z,129.35
2018-04-12T22:15:06.694Z,134.60
2018-04-12T22:17:34.878Z,140.68
2018-04-12T22:20:03.026Z,132.87
2018-04-12T22:22:31.160Z,147.05
2018-04-12T22:25:00.797Z,138.62
2018-04-12T22:27:28.933Z,134.90
2018-04-12T22:29:57.093Z,128.15
2018-04-12T22:32:25.218Z,138.25
2018-04-12T22:34:54.111Z,132.87
2018-04-12T22:37:22.289Z,122.18
2018-04-12T22:39:50.428Z,141.75
2018-04-12T22:42:19.336Z,131.32
2018-04-12T22:44:48.229Z,119.87
2018-04-12T22:47:17.252Z,131.45
2018-04-12T22:49:45.411Z,123.55
2018-04-12T22:52:13.543Z,133.98
2018-04-12T22:54:41.758Z,122.40
2018-04-12T22:57:09.926Z,130.90
2018-04-12T22:59:38.060Z,124.90
2018-04-12T23:02:07.718Z,130.63
2018-04-12T23:04:35.911Z,135.18
2018-04-12T23:07:04.009Z,135.32
2018-04-12T23:09:32.178Z,130.50
2018-04-12T23:12:00.338Z,121.62
2018-04-12T23:14:28.460Z,135.65
2018-04-12T23:16:57.350Z,120.07
2018-04-12T23:19:26.360Z,120.03
2018-04-12T23:21:54.527Z,119.72
2018-04-12T23:24:23.428Z,130.77
2018-04-12T23:26:51.626Z,120.10
2018-04-12T23:29:19.736Z,113.15
2018-04-12T23:31:48.679Z,107.95
2018-04-12T23:34:16.813Z,109.32
2018-04-12T23:36:45.720Z,129.48
2018-04-12T23:39:13.880Z,138.73
2018-04-12T23:41:42.785Z,135.50
2018-04-12T23:44:10.913Z,123.53
2018-04-12T23:46:39.152Z,124.28
2018-04-12T23:49:07.302Z,117.70
2018-04-12T23:51:35.449Z,115.43
2018-04-12T23:54:04.340Z,111.97
2018-04-12T23:56:33.221Z,92.90
2018-04-12T23:59:01.438Z,101.87
